aviador You're here:

FAKM Decoded Metar

KIMBERLEY in SOUTH AFRICA
Report Time2017-12-11 22:00:00
UTC Time2017-12-11 22:56:48
Flight Rules unknown UNKNOWN
Wind280° at 05 kt
W.Decomp.*RWY 28: 4.7 kt HW 1.8 kt RCW
RWY 02: 1.0 kt HW 4.9 kt LCW
W.Rank280° ranks 20
Current wind is below 280° avg. (8.0)
VisibilityN/A
Phenomena:N/A
Clouds:N/A
Expected CloudBase > 6,800 ft AGL from Temp-Dew spread
CeilingNone
Temp18°C (ISA +11)
Dew Point01°C (32% RH)
AAT14.4°C
QNH1011 hPa
Density Alt5,325 ft
Elevation3,911 ft
Report Wrong Elevation
Raw Report
METAR FAKM 112200Z AUTO 28005KT //// // ////// 18/01 Q1011=

Extra information for FAKM:More info

Metar Taf Metar & Taf Last 4 Metars F.Rules Stats Wind Profile Meteogram Temp Stats Airport Information Weather charts Add Link Nearby VenuesMetar ALERT Operation Metar Decoded Social comments